Time;durP1;ratioP1;P1;durP2;ratioP2;P2;SDS_P1;SDS_P2;PMS_P1;PMS_P2;Temp;Humidity;BMP_temperature;BMP_pressure;BME280_temperature;BME280_humidity;BME280_pressure;Samples;Min_cycle;Max_cycle;Signal;HPM_P1;HPM_P2
2023/12/28 00:02:21;;;;;;;;;;;6.50;99.90;;;;;;5035663;28;20095;-78
2023/12/28 00:04:47;;;;;;;22.83;11.25;;;6.50;99.90;;;;;;5052733;28;19947;-79
2023/12/28 00:07:13;;;;;;;;;;;6.70;99.90;;;;;;5035737;28;20560;-78
2023/12/28 00:09:39;;;;;;;20.45;8.95;;;6.70;99.90;;;;;;5053052;28;19909;-79
2023/12/28 00:12:05;;;;;;;;;;;6.80;99.90;;;;;;5053551;28;20105;-78
2023/12/28 00:14:30;;;;;;;11.10;5.68;;;6.70;99.90;;;;;;5035298;28;20266;-80
2023/12/28 00:16:56;;;;;;;;;;;6.80;99.90;;;;;;5035265;28;20029;-77
2023/12/28 00:19:21;;;;;;;22.20;10.88;;;6.70;99.90;;;;;;5053078;28;19908;-77
2023/12/28 00:21:47;;;;;;;;;;;6.60;99.90;;;;;;5053510;28;20333;-78
2023/12/28 00:24:14;;;;;;;46.60;16.95;;;6.50;99.90;;;;;;5034518;28;19904;-76
2023/12/28 00:26:39;;;;;;;21.60;9.95;;;6.40;99.90;;;;;;5053099;28;20055;-77
2023/12/28 00:29:05;;;;;;;;;;;6.50;99.90;;;;;;5053313;28;20083;-77
2023/12/28 00:31:30;;;;;;;37.58;16.75;;;6.50;99.90;;;;;;5035221;28;20490;-77
2023/12/28 00:33:56;;;;;;;;;;;6.40;99.90;;;;;;5035465;28;20044;-77
2023/12/28 00:36:21;;;;;;;35.70;13.32;;;6.40;99.90;;;;;;5053145;28;19913;-77
2023/12/28 00:38:47;;;;;;;;;;;6.40;99.90;;;;;;5054005;28;20104;-78
2023/12/28 00:41:12;;;;;;;53.63;22.65;;;6.40;99.90;;;;;;5053106;28;19905;-77
2023/12/28 00:43:38;;;;;;;;;;;6.40;99.90;;;;;;5053924;28;20075;-77
2023/12/28 00:46:04;;;;;;;34.22;15.18;;;6.50;99.90;;;;;;5035585;28;20456;-77
2023/12/28 00:48:29;;;;;;;;;;;6.50;99.90;;;;;;5053861;28;20105;-77
2023/12/28 00:50:55;;;;;;;31.73;13.45;;;6.40;99.90;;;;;;5038892;28;19944;-77
2023/12/28 00:53:20;;;;;;;;;;;6.50;99.90;;;;;;5039651;28;20027;-77
2023/12/28 00:55:46;;;;;;;25.20;10.95;;;6.50;99.90;;;;;;5056928;28;19919;-77
2023/12/28 00:58:11;;;;;;;;;;;6.60;99.90;;;;;;5057389;28;20374;-77
2023/12/28 01:00:37;;;;;;;62.15;24.52;;;6.40;99.90;;;;;;5039151;28;20443;-77
2023/12/28 01:03:03;;;;;;;;;;;6.50;99.90;;;;;;5039644;28;20051;-77
2023/12/28 01:05:28;;;;;;;45.22;18.25;;;6.40;99.90;;;;;;5038578;28;19909;-77
2023/12/28 01:07:54;;;;;;;;;;;6.40;99.90;;;;;;5057746;28;20054;-77
2023/12/28 01:10:19;;;;;;;33.13;14.00;;;6.40;99.90;;;;;;5038835;28;20381;-77
2023/12/28 01:12:45;;;;;;;;;;;6.40;99.90;;;;;;5039512;28;20115;-77
2023/12/28 01:15:11;;;;;;;31.58;11.95;;;6.50;99.90;;;;;;5057064;28;19923;-77
2023/12/28 01:17:37;;;;;;;;;;;6.50;99.90;;;;;;5057116;28;20024;-76
2023/12/28 01:20:03;;;;;;;22.25;9.23;;;6.50;99.90;;;;;;5038001;28;19904;-76
2023/12/28 01:22:29;;;;;;;19.42;8.20;;;6.70;99.90;;;;;;5038896;28;20079;-78
2023/12/28 01:24:54;;;;;;;;;;;6.70;99.90;;;;;;5039840;28;20029;-76
2023/12/28 01:27:20;;;;;;;19.48;7.80;;;6.60;99.90;;;;;;5038831;28;20428;-77
2023/12/28 01:29:45;;;;;;;;;;;6.70;99.90;;;;;;5058306;28;20584;-77
2023/12/28 01:32:11;;;;;;;12.68;6.10;;;6.70;99.90;;;;;;5039582;28;19912;-77
2023/12/28 01:34:37;;;;;;;;;;;6.60;99.90;;;;;;5057609;28;20040;-77
2023/12/28 01:37:02;;;;;;;20.40;8.82;;;6.60;99.90;;;;;;5039866;28;19919;-78
2023/12/28 01:39:28;;;;;;;;;;;6.60;99.90;;;;;;5059338;28;20504;-77
2023/12/28 01:41:54;;;;;;;14.95;7.88;;;6.60;99.90;;;;;;5056215;28;19928;-77
2023/12/28 01:44:19;;;;;;;;;;;6.60;99.90;;;;;;5055351;28;20390;-77
2023/12/28 01:46:46;;;;;;;21.02;8.85;;;6.60;99.90;;;;;;5054781;28;19988;-77
2023/12/28 01:49:12;;;;;;;15.40;8.60;;;6.60;99.90;;;;;;5056409;28;20024;-77
2023/12/28 01:51:37;;;;;;;;;;;6.50;99.90;;;;;;5056840;28;20032;-77
2023/12/28 01:54:03;;;;;;;21.30;9.20;;;6.60;99.90;;;;;;5037942;28;19904;-77
2023/12/28 01:56:29;;;;;;;;;;;6.40;99.90;;;;;;5057197;28;20048;-77
2023/12/28 01:58:54;;;;;;;23.40;8.60;;;6.40;99.90;;;;;;5055632;28;19905;-76
2023/12/28 02:01:20;;;;;;;;;;;6.50;99.90;;;;;;5055866;28;20055;-77
2023/12/28 02:03:46;;;;;;;16.20;6.45;;;6.50;99.90;;;;;;5038371;28;19911;-76
2023/12/28 02:06:16;;;;;;;14.85;6.47;;;6.50;99.90;;;;;;5038249;28;20055;-77
2023/12/28 02:08:42;;;;;;;12.10;5.63;;;6.50;99.90;;;;;;5056978;28;20032;-77
2023/12/28 02:11:07;;;;;;;;;;;6.50;99.90;;;;;;5056343;28;20021;-77
2023/12/28 02:13:33;;;;;;;14.60;5.85;;;6.50;99.90;;;;;;5057285;28;19912;-77
2023/12/28 02:16:03;;;;;;;;;;;6.50;99.90;;;;;;5056944;28;20039;-78
2023/12/28 02:18:39;;;;;;;10.43;5.10;;;6.50;99.90;;;;;;5037075;28;19932;-77
2023/12/28 02:21:06;;;;;;;10.38;5.07;;;6.60;99.90;;;;;;5030983;28;20111;-77
2023/12/28 02:23:33;;;;;;;9.20;4.82;;;6.60;99.90;;;;;;5036687;28;20067;-77
2023/12/28 02:25:58;;;;;;;10.55;5.20;;;6.50;99.90;;;;;;5036505;28;20036;-77
2023/12/28 02:28:24;;;;;;;;;;;6.70;99.90;;;;;;5054981;28;20029;-77
2023/12/28 02:30:50;;;;;;;10.43;3.88;;;6.60;99.90;;;;;;5035618;28;19904;-77
2023/12/28 02:33:19;;;;;;;;;;;6.80;99.90;;;;;;5054808;28;20044;-77
2023/12/28 02:35:53;;;;;;;7.38;3.75;;;6.80;99.90;;;;;;5054516;28;20273;-77
2023/12/28 02:38:20;;;;;;;15.60;8.13;;;7.00;99.90;;;;;;5054695;28;20025;-77
2023/12/28 02:40:47;;;;;;;27.55;12.77;;;6.80;99.90;;;;;;5035972;28;20025;-77
2023/12/28 02:43:13;;;;;;;89.57;33.03;;;6.70;99.90;;;;;;5036291;28;20033;-77
2023/12/28 02:45:39;;;;;;;;;;;6.60;99.90;;;;;;5054991;28;20083;-77
2023/12/28 02:48:05;;;;;;;41.78;16.17;;;6.50;99.90;;;;;;5054541;28;19905;-77
2023/12/28 02:50:31;;;;;;;16.80;8.38;;;6.50;99.90;;;;;;5036181;28;20036;-77
2023/12/28 02:52:58;;;;;;;16.77;7.75;;;6.60;99.90;;;;;;5054258;28;20025;-77
2023/12/28 02:55:24;;;;;;;23.05;10.27;;;6.50;99.90;;;;;;5054331;28;20072;-77
2023/12/28 02:57:50;;;;;;;;;;;6.40;99.90;;;;;;5036961;28;20025;-77
2023/12/28 03:00:16;;;;;;;16.05;5.63;;;6.40;99.90;;;;;;5035951;28;19908;-78
2023/12/28 03:02:42;;;;;;;;;;;6.40;99.90;;;;;;5036392;28;20121;-76
2023/12/28 03:05:08;;;;;;;19.02;8.63;;;6.60;99.90;;;;;;5036815;28;19904;-78
2023/12/28 03:07:33;;;;;;;;;;;6.50;99.90;;;;;;5054472;28;20028;-77
2023/12/28 03:09:59;;;;;;;22.67;9.02;;;6.50;99.90;;;;;;5036446;28;19905;-77
2023/12/28 03:12:25;;;;;;;;;;;6.50;99.90;;;;;;5035809;28;20057;-77
2023/12/28 03:14:51;;;;;;;9.20;3.22;;;6.60;99.90;;;;;;5054396;28;20396;-77
2023/12/28 03:17:16;;;;;;;;;;;6.60;99.90;;;;;;5054869;28;20021;-77
2023/12/28 03:19:42;;;;;;;7.75;3.40;;;6.60;99.90;;;;;;5054133;28;20432;-77
2023/12/28 03:22:07;;;;;;;;;;;6.70;99.90;;;;;;5054564;28;20040;-77
2023/12/28 03:24:33;;;;;;;7.10;2.40;;;6.70;99.90;;;;;;5054361;28;20005;-77
2023/12/28 03:26:59;;;;;;;;;;;6.80;99.90;;;;;;5037167;28;20052;-78
2023/12/28 03:29:24;;;;;;;9.50;2.45;;;6.90;99.90;;;;;;5054460;28;20059;-78
2023/12/28 03:31:50;;;;;;;;;;;6.80;99.90;;;;;;5054907;28;20028;-77
2023/12/28 03:34:16;;;;;;;5.80;2.95;;;6.90;99.90;;;;;;5035808;28;19921;-77
2023/12/28 03:36:41;;;;;;;;;;;6.90;99.90;;;;;;5036812;28;20123;-77
2023/12/28 03:39:08;;;;;;;5.53;2.42;;;6.80;99.90;;;;;;5036626;28;20003;-76
2023/12/28 03:41:34;;;;;;;7.70;2.65;;;6.90;99.90;;;;;;5036004;28;20027;-76
2023/12/28 03:44:00;;;;;;;;;;;6.90;99.90;;;;;;5036809;28;20385;-77
2023/12/28 03:46:26;;;;;;;10.00;3.20;;;6.90;99.90;;;;;;5037095;28;19912;-77
2023/12/28 03:48:52;;;;;;;5.03;2.75;;;7.10;99.90;;;;;;5038416;28;20029;-77
2023/12/28 03:51:19;;;;;;;7.85;3.17;;;7.00;99.90;;;;;;5054468;28;20070;-77
2023/12/28 03:53:45;;;;;;;7.55;3.08;;;6.80;99.90;;;;;;5035021;28;20033;-77
2023/12/28 03:56:24;;;;;;;;;;;6.90;99.90;;;;;;5035084;28;20040;-76
2023/12/28 03:58:50;;;;;;;6.78;2.67;;;6.90;99.90;;;;;;5034921;28;19909;-77
2023/12/28 04:01:16;;;;;;;;;;;7.00;99.90;;;;;;5053328;28;20477;-77
2023/12/28 04:03:41;;;;;;;7.50;3.58;;;7.00;99.90;;;;;;5054868;28;20392;-76
2023/12/28 04:06:07;;;;;;;;;;;6.90;99.90;;;;;;5055674;28;20021;-76
2023/12/28 04:08:32;;;;;;;7.10;3.10;;;6.90;99.90;;;;;;5036813;28;19963;-77
2023/12/28 04:10:58;;;;;;;;;;;6.90;99.90;;;;;;5037777;28;20082;-77
2023/12/28 04:13:23;;;;;;;6.68;3.10;;;7.00;99.90;;;;;;5055095;28;19904;-78
2023/12/28 04:15:49;;;;;;;;;;;6.90;99.90;;;;;;5055811;28;20021;-77
2023/12/28 04:18:14;;;;;;;9.30;3.97;;;6.80;99.90;;;;;;5035087;28;19915;-78
2023/12/28 04:20:42;;;;;;;;;;;6.80;99.90;;;;;;5035216;28;20905;-77
2023/12/28 04:23:07;;;;;;;9.27;3.92;;;6.90;99.90;;;;;;5052507;28;19904;-77
2023/12/28 04:25:33;;;;;;;;;;;6.90;99.90;;;;;;5038709;28;20136;-77
2023/12/28 04:27:58;;;;;;;13.73;4.25;;;7.10;99.90;;;;;;5038938;28;19908;-77
2023/12/28 04:30:24;;;;;;;;;;;7.00;99.90;;;;;;5038865;28;20496;-77
2023/12/28 04:32:49;;;;;;;6.85;3.70;;;6.90;99.90;;;;;;5037896;28;19915;-77
2023/12/28 04:35:15;;;;;;;;;;;6.80;99.90;;;;;;5056951;28;20029;-78
2023/12/28 04:37:41;;;;;;;10.93;4.72;;;6.70;99.90;;;;;;5056635;28;20355;-77
2023/12/28 04:40:06;;;;;;;;;;;6.60;99.90;;;;;;5056756;28;20120;-77
2023/12/28 04:42:32;;;;;;;10.00;5.25;;;6.40;99.90;;;;;;5056460;28;20009;-77
2023/12/28 04:44:57;;;;;;;;;;;6.30;99.90;;;;;;5057032;28;20398;-76
2023/12/28 04:47:23;;;;;;;7.22;3.92;;;6.20;99.90;;;;;;5038964;28;19916;-77
2023/12/28 04:49:48;;;;;;;;;;;6.10;99.90;;;;;;5059202;28;20083;-77
2023/12/28 04:52:14;;;;;;;14.95;6.00;;;6.30;99.90;;;;;;5040679;28;19916;-77
2023/12/28 04:54:40;;;;;;;;;;;6.00;99.90;;;;;;5041026;28;20116;-77
2023/12/28 04:57:08;;;;;;;9.95;5.22;;;5.90;99.90;;;;;;5058830;28;19924;-77
2023/12/28 04:59:40;;;;;;;10.18;5.13;;;5.80;99.90;;;;;;5058331;28;20024;-77
2023/12/28 05:02:06;;;;;;;12.77;5.32;;;5.80;99.90;;;;;;5039883;28;20052;-77
2023/12/28 05:04:32;;;;;;;;;;;5.70;99.90;;;;;;5058223;28;20028;-77
2023/12/28 05:06:57;;;;;;;10.15;5.00;;;5.70;99.90;;;;;;5037511;28;19905;-77
2023/12/28 05:09:23;;;;;;;;;;;5.60;99.90;;;;;;5040603;28;20032;-77
2023/12/28 05:11:49;;;;;;;10.38;5.75;;;5.60;99.90;;;;;;5039905;28;19905;-77
2023/12/28 05:14:14;;;;;;;;;;;5.50;99.90;;;;;;5058723;28;20846;-76
2023/12/28 05:16:40;;;;;;;10.45;5.57;;;5.50;99.90;;;;;;5058114;28;20365;-76
2023/12/28 05:19:05;;;;;;;;;;;5.40;99.90;;;;;;5056801;28;20021;-77
2023/12/28 05:21:31;;;;;;;13.98;6.43;;;5.30;99.90;;;;;;5056162;28;20277;-77
2023/12/28 05:23:56;;;;;;;;;;;5.30;99.90;;;;;;5038904;28;20074;-77
2023/12/28 05:26:23;;;;;;;13.38;7.13;;;5.40;99.90;;;;;;5038825;28;19912;-77
2023/12/28 05:28:49;;;;;;;14.73;7.38;;;5.40;99.90;;;;;;5038987;28;20120;-77
2023/12/28 05:31:15;;;;;;;;;;;5.50;99.90;;;;;;5057628;28;20475;-77
2023/12/28 05:33:40;;;;;;;13.60;7.03;;;5.50;99.90;;;;;;5057790;28;19925;-78
2023/12/28 05:36:06;;;;;;;;;;;5.50;99.90;;;;;;5058262;28;20614;-77
2023/12/28 05:38:32;;;;;;;15.60;5.90;;;5.50;99.90;;;;;;5041061;28;19904;-77
2023/12/28 05:40:57;;;;;;;;;;;5.50;99.90;;;;;;5059788;28;20064;-77
2023/12/28 05:43:23;;;;;;;13.60;6.97;;;5.40;99.90;;;;;;5041307;28;19951;-77
2023/12/28 05:45:48;;;;;;;;;;;5.30;99.90;;;;;;5040962;28;20071;-77
2023/12/28 05:48:14;;;;;;;15.18;6.90;;;5.20;99.90;;;;;;5040134;28;20364;-77
2023/12/28 05:50:40;;;;;;;;;;;5.10;99.90;;;;;;5057409;28;20025;-77
2023/12/28 05:53:05;;;;;;;15.30;7.60;;;5.00;99.90;;;;;;5056792;28;19912;-77
2023/12/28 05:55:31;;;;;;;;;;;5.00;99.90;;;;;;5058575;28;20041;-78
2023/12/28 05:57:57;;;;;;;15.48;7.78;;;4.80;99.90;;;;;;5040453;28;19911;-78
2023/12/28 06:00:22;;;;;;;;;;;4.70;99.90;;;;;;5055985;28;20033;-77
2023/12/28 06:02:51;;;;;;;17.73;8.45;;;4.70;99.90;;;;;;5054813;28;19904;-77
2023/12/28 06:05:17;;;;;;;21.13;8.93;;;4.70;99.90;;;;;;5054865;28;20116;-77
2023/12/28 06:07:43;;;;;;;16.50;9.48;;;4.60;99.90;;;;;;5056032;28;20079;-77
2023/12/28 06:10:09;;;;;;;;;;;4.70;99.90;;;;;;5055402;28;20028;-77
2023/12/28 06:12:35;;;;;;;17.13;8.68;;;4.60;99.90;;;;;;5036725;28;19908;-76
2023/12/28 06:15:01;;;;;;;16.48;9.32;;;4.50;99.90;;;;;;5036791;28;20032;-77
2023/12/28 06:17:26;;;;;;;;;;;4.50;99.90;;;;;;5054879;28;20025;-77
2023/12/28 06:19:52;;;;;;;18.58;8.50;;;4.40;99.90;;;;;;5054964;28;19999;-77
2023/12/28 06:22:17;;;;;;;;;;;4.40;99.90;;;;;;5055170;28;20029;-76
2023/12/28 06:24:43;;;;;;;20.40;10.07;;;4.40;99.90;;;;;;5054597;28;19909;-77
2023/12/28 06:27:09;;;;;;;;;;;4.20;99.90;;;;;;5037133;28;20591;-76
2023/12/28 06:29:34;;;;;;;22.63;12.80;;;4.10;99.90;;;;;;5054569;28;19908;-77
2023/12/28 06:32:00;;;;;;;;;;;4.10;99.90;;;;;;5055261;28;20478;-77
2023/12/28 06:34:26;;;;;;;23.75;11.88;;;4.00;99.90;;;;;;5036564;28;19928;-77
2023/12/28 06:36:52;;;;;;;22.92;11.80;;;3.90;99.90;;;;;;5054866;28;20043;-77
2023/12/28 06:39:17;;;;;;;;;;;3.90;99.90;;;;;;5036521;28;20024;-77
2023/12/28 06:41:46;;;;;;;16.83;8.52;;;4.00;99.90;;;;;;5036301;28;20284;-77
2023/12/28 06:44:13;;;;;;;13.82;7.55;;;4.00;99.90;;;;;;5036503;28;20033;-76
2023/12/28 06:46:39;;;;;;;16.25;8.35;;;3.80;99.90;;;;;;5036631;28;20021;-77
2023/12/28 06:49:05;;;;;;;;;;;3.80;99.90;;;;;;5037367;28;20110;-77
2023/12/28 06:51:31;;;;;;;19.03;11.13;;;3.80;99.90;;;;;;5036580;28;19955;-77
2023/12/28 06:53:57;;;;;;;;;;;3.60;99.90;;;;;;5037191;28;20028;-77
2023/12/28 06:56:22;;;;;;;15.30;8.13;;;3.60;99.90;;;;;;5036382;28;19974;-76
2023/12/28 06:58:48;;;;;;;;;;;3.50;99.90;;;;;;5055163;28;20017;-78
2023/12/28 07:01:14;;;;;;;19.27;11.98;;;3.40;99.90;;;;;;5053759;28;20606;-76
2023/12/28 07:03:39;;;;;;;;;;;3.60;99.90;;;;;;5037124;28;20029;-76
2023/12/28 07:06:05;;;;;;;21.17;10.73;;;3.60;99.90;;;;;;5057591;28;19905;-76
2023/12/28 07:08:31;;;;;;;;;;;3.50;99.90;;;;;;5058051;28;20029;-78
2023/12/28 07:10:57;;;;;;;19.63;10.60;;;3.50;99.90;;;;;;5055417;28;19908;-77
2023/12/28 07:13:23;;;;;;;24.25;11.15;;;3.50;99.90;;;;;;5037964;28;20029;-77
2023/12/28 07:15:48;;;;;;;;;;;3.60;99.90;;;;;;5037952;28;20060;-77
2023/12/28 07:18:14;;;;;;;23.15;12.20;;;3.60;99.90;;;;;;5055433;28;19912;-77
2023/12/28 07:20:39;;;;;;;;;;;3.70;99.90;;;;;;5036900;28;20021;-77
2023/12/28 07:23:05;;;;;;;30.67;15.15;;;3.80;99.90;;;;;;5036483;28;19911;-77
2023/12/28 07:25:31;;;;;;;;;;;4.00;99.90;;;;;;5055048;28;20100;-77
2023/12/28 07:27:56;;;;;;;25.10;12.23;;;4.20;99.90;;;;;;5036592;28;20432;-77
2023/12/28 07:30:22;;;;;;;;;;;4.50;99.90;;;;;;5055447;28;20025;-77
2023/12/28 07:32:48;;;;;;;33.25;16.33;;;4.70;99.90;;;;;;5054376;28;19908;-77
2023/12/28 07:35:13;;;;;;;;;;;4.90;99.90;;;;;;5036630;28;20032;-77
2023/12/28 07:37:39;;;;;;;31.60;16.48;;;5.10;99.90;;;;;;5036100;28;19905;-77
2023/12/28 07:40:05;;;;;;;;;;;5.30;99.90;;;;;;5054546;28;20029;-76
2023/12/28 07:42:30;;;;;;;41.53;20.92;;;5.50;99.90;;;;;;5036133;28;19915;-76
2023/12/28 07:44:56;;;;;;;;;;;5.50;99.90;;;;;;5055029;28;20107;-77
2023/12/28 07:47:22;;;;;;;34.97;19.95;;;5.60;99.90;;;;;;5036355;28;19908;-77
2023/12/28 07:49:47;;;;;;;;;;;5.90;99.90;;;;;;5054814;28;20024;-77
2023/12/28 07:52:13;;;;;;;53.95;27.67;;;6.10;99.90;;;;;;5036859;28;20341;-77
2023/12/28 07:54:38;;;;;;;;;;;6.60;99.90;;;;;;5054812;28;20367;-76
2023/12/28 07:57:04;;;;;;;53.58;27.88;;;7.10;99.90;;;;;;5054210;28;19920;-77
2023/12/28 07:59:30;;;;;;;;;;;7.30;99.90;;;;;;5053912;28;20035;-77
2023/12/28 08:01:56;;;;;;;46.38;25.02;;;7.30;99.90;;;;;;5036551;28;20410;-78
2023/12/28 08:04:22;;;;;;;35.20;21.52;;;7.50;99.90;;;;;;5037750;28;20016;-78
2023/12/28 08:06:48;;;;;;;;;;;7.70;99.90;;;;;;5053842;28;20083;-77
2023/12/28 08:09:13;;;;;;;36.30;21.38;;;8.00;99.90;;;;;;5052630;28;20280;-77
2023/12/28 08:11:39;;;;;;;;;;;8.40;99.90;;;;;;5053355;28;20409;-77
2023/12/28 08:14:05;;;;;;;39.45;24.38;;;8.80;99.90;;;;;;5034984;28;19928;-77
2023/12/28 08:16:31;;;;;;;44.03;27.30;;;9.00;99.90;;;;;;5052863;28;20045;-77
2023/12/28 08:18:57;;;;;;;;;;;9.30;99.90;;;;;;5054249;28;20112;-77
2023/12/28 08:21:22;;;;;;;44.13;25.75;;;9.40;99.90;;;;;;5053331;28;19948;-77
2023/12/28 08:23:48;;;;;;;;;;;9.50;99.90;;;;;;5053468;28;20526;-74
2023/12/28 08:26:13;;;;;;;27.95;16.30;;;9.60;99.90;;;;;;5033560;28;19909;-75
2023/12/28 08:28:40;;;;;;;;;;;9.80;99.90;;;;;;5051453;28;20517;-75
2023/12/28 08:31:07;;;;;;;24.75;13.95;;;9.90;99.90;;;;;;5051837;28;20003;-74
2023/12/28 08:33:33;;;;;;;25.52;14.18;;;9.90;99.90;;;;;;5051168;28;20124;-75
2023/12/28 08:35:58;;;;;;;;;;;9.70;99.90;;;;;;5051784;28;20159;-75
2023/12/28 08:38:24;;;;;;;26.25;13.73;;;9.70;99.90;;;;;;5033529;28;20391;-75
2023/12/28 08:40:50;;;;;;;;;;;9.60;99.90;;;;;;5051773;28;20512;-74
2023/12/28 08:43:16;;;;;;;20.13;10.80;;;9.30;99.90;;;;;;5051451;28;19925;-76
2023/12/28 08:45:41;;;;;;;;;;;9.00;99.90;;;;;;5052709;28;20029;-77
2023/12/28 08:48:07;;;;;;;20.55;11.18;;;8.80;99.90;;;;;;5052022;28;20365;-76
2023/12/28 08:50:33;;;;;;;;;;;8.60;99.90;;;;;;5035929;28;20115;-76
2023/12/28 08:52:58;;;;;;;24.83;13.25;;;8.50;99.90;;;;;;5054027;28;20408;-77
2023/12/28 08:55:24;;;;;;;;;;;8.30;99.90;;;;;;5036470;28;20068;-76
2023/12/28 08:57:49;;;;;;;24.98;13.82;;;8.20;99.90;;;;;;5036171;28;19905;-77
2023/12/28 09:00:16;;;;;;;;;;;8.10;99.90;;;;;;5036588;28;20043;-76
2023/12/28 09:02:42;;;;;;;32.83;13.52;;;8.00;99.90;;;;;;5054287;28;19905;-76
2023/12/28 09:05:08;;;;;;;;;;;8.00;99.90;;;;;;5054009;28;20040;-77
2023/12/28 09:07:36;;;;;;;34.30;17.17;;;8.00;99.90;;;;;;5034862;28;19965;-77
2023/12/28 09:10:02;;;;;;;29.90;15.70;;;7.90;99.90;;;;;;5034874;28;20025;-76
2023/12/28 09:12:27;;;;;;;;;;;7.90;99.90;;;;;;5037879;28;20040;-76
2023/12/28 09:14:53;;;;;;;29.00;16.58;;;7.80;99.90;;;;;;5056487;28;19908;-77
2023/12/28 09:17:21;;;;;;;;;;;7.80;99.90;;;;;;5039037;28;20393;-77
2023/12/28 09:19:46;;;;;;;28.42;15.45;;;7.80;99.90;;;;;;5038554;28;19905;-76
2023/12/28 09:22:12;;;;;;;;;;;7.70;99.90;;;;;;5056839;28;20036;-76
2023/12/28 09:24:37;;;;;;;27.38;16.55;;;7.70;99.90;;;;;;5038463;28;19936;-77
2023/12/28 09:27:03;;;;;;;;;;;7.70;99.90;;;;;;5038979;28;20043;-76
2023/12/28 09:29:28;;;;;;;37.00;18.35;;;7.70;99.90;;;;;;5056209;28;19960;-77
2023/12/28 09:31:54;;;;;;;;;;;7.70;99.90;;;;;;5056698;28;20029;-76
2023/12/28 09:34:20;;;;;;;28.08;15.63;;;7.80;99.90;;;;;;5039316;28;19917;-76
2023/12/28 09:36:45;;;;;;;;;;;7.70;99.90;;;;;;5056617;28;20037;-76
2023/12/28 09:39:11;;;;;;;25.95;14.55;;;7.80;99.90;;;;;;5056493;28;19909;-77
2023/12/28 09:41:42;;;;;;;25.30;15.15;;;7.60;99.90;;;;;;5038572;28;20029;-77
2023/12/28 09:44:12;;;;;;;23.63;14.60;;;7.60;99.90;;;;;;5056428;28;20032;-76
2023/12/28 09:46:41;;;;;;;26.80;14.88;;;7.60;99.90;;;;;;5056582;28;20017;-77
2023/12/28 09:49:07;;;;;;;24.15;14.70;;;7.60;99.90;;;;;;5057548;28;20028;-77
2023/12/28 09:51:33;;;;;;;23.25;13.85;;;7.60;99.90;;;;;;5059225;28;20028;-76
2023/12/28 09:53:58;;;;;;;;;;;7.50;99.90;;;;;;5042123;28;20088;-75
2023/12/28 09:56:24;;;;;;;35.28;17.17;;;7.50;99.90;;;;;;5041697;28;19917;-77
2023/12/28 09:58:50;;;;;;;;;;;7.60;99.90;;;;;;5041927;28;20039;-76
2023/12/28 10:01:17;;;;;;;28.02;16.45;;;7.60;99.90;;;;;;5060094;28;19915;-76
2023/12/28 10:03:43;;;;;;;25.80;14.48;;;7.70;99.90;;;;;;5041565;28;20017;-77
2023/12/28 10:06:09;;;;;;;28.52;15.68;;;7.60;99.90;;;;;;5057028;28;20027;-76
2023/12/28 10:08:35;;;;;;;;;;;7.70;99.90;;;;;;5039077;28;20112;-77
2023/12/28 10:11:02;;;;;;;25.48;15.75;;;7.70;99.90;;;;;;5039508;28;20429;-78
2023/12/28 10:13:28;;;;;;;28.90;14.85;;;7.70;99.90;;;;;;5039831;28;20112;-77
2023/12/28 10:15:56;;;;;;;;;;;7.70;99.90;;;;;;5055260;28;20151;-76
2023/12/28 10:18:23;;;;;;;25.27;14.13;;;7.50;99.90;;;;;;5035872;28;19958;-77
2023/12/28 10:20:53;;;;;;;25.40;13.63;;;7.60;99.90;;;;;;5038359;28;20036;-76
2023/12/28 10:23:20;;;;;;;27.98;14.57;;;7.60;99.90;;;;;;5056400;28;20029;-76
2023/12/28 10:25:46;;;;;;;22.17;13.52;;;7.70;99.90;;;;;;5038999;28;20385;-76
2023/12/28 10:28:12;;;;;;;21.70;12.82;;;7.70;99.90;;;;;;5056924;28;20029;-76
2023/12/28 10:30:40;;;;;;;;;;;7.70;99.90;;;;;;5040202;28;20032;-76
2023/12/28 10:33:06;;;;;;;;;;;7.80;99.90;;;;;;5040461;28;19909;-77
2023/12/28 10:35:32;;;;;;;25.05;15.10;;;7.80;99.90;;;;;;5037296;28;19920;-77
2023/12/28 10:38:00;;;;;;;28.55;15.95;;;7.90;99.90;;;;;;5053861;28;20380;-77
2023/12/28 10:40:27;;;;;;;28.40;18.45;;;7.90;99.90;;;;;;5053324;28;20030;-76
2023/12/28 10:42:57;;;;;;;36.80;14.80;;;7.90;99.90;;;;;;5054218;28;20036;-76
2023/12/28 10:45:25;;;;;;;27.63;15.00;;;7.90;99.90;;;;;;5035977;28;20056;-76
2023/12/28 10:48:00;;;;;;;25.55;12.57;;;7.90;99.90;;;;;;5054624;28;20040;-76
2023/12/28 10:50:28;;;;;;;20.25;11.80;;;7.90;99.90;;;;;;5054217;28;20037;-76
2023/12/28 10:53:03;;;;;;;40.65;13.98;;;7.90;99.90;;;;;;5036092;28;20024;-76
2023/12/28 10:55:41;;;;;;;26.33;12.43;;;8.00;99.90;;;;;;5035940;28;20036;-77
2023/12/28 10:58:24;;;;;;;23.98;12.75;;;8.00;99.90;;;;;;5035974;28;20135;-76
2023/12/28 11:01:02;;;;;;;23.05;12.68;;;8.00;99.90;;;;;;5053646;28;20648;-76
2023/12/28 11:03:37;;;;;;;23.88;13.30;;;8.00;99.90;;;;;;5036193;28;20025;-76
2023/12/28 11:06:04;;;;;;;21.20;12.50;;;8.00;99.90;;;;;;5036326;28;20070;-76
2023/12/28 11:08:32;;;;;;;21.77;11.48;;;8.10;99.90;;;;;;5054959;28;20017;-76
2023/12/28 11:11:01;;;;;;;21.90;12.15;;;8.10;99.90;;;;;;5036964;28;20025;-76
2023/12/28 11:13:30;;;;;;;25.65;13.50;;;8.10;99.90;;;;;;5037278;28;20013;-76
2023/12/28 11:15:56;;;;;;;20.83;12.60;;;8.20;99.90;;;;;;5055352;28;20102;-76
2023/12/28 11:18:23;;;;;;;22.60;12.82;;;8.10;99.90;;;;;;5055145;28;20021;-77
2023/12/28 11:20:50;;;;;;;31.13;16.15;;;8.20;99.90;;;;;;5054264;28;20555;-77
2023/12/28 11:23:16;;;;;;;25.98;14.90;;;8.20;99.90;;;;;;5054135;28;20088;-76
2023/12/28 11:25:42;;;;;;;;;;;8.30;99.90;;;;;;5054863;28;20025;-76
2023/12/28 11:28:11;;;;;;;28.85;16.65;;;8.20;99.90;;;;;;5053724;28;19909;-76
2023/12/28 11:30:38;;;;;;;30.45;16.38;;;8.30;99.90;;;;;;5054072;28;20546;-76
2023/12/28 11:33:07;;;;;;;29.02;17.45;;;8.30;99.90;;;;;;5035450;28;20033;-78
2023/12/28 11:35:39;;;;;;;30.40;15.48;;;8.30;99.90;;;;;;5054554;28;20036;-77
2023/12/28 11:38:09;;;;;;;26.58;16.05;;;8.30;99.90;;;;;;5055662;28;20442;-76
2023/12/28 11:40:47;;;;;;;26.75;17.08;;;8.20;99.90;;;;;;5037875;28;20021;-76
2023/12/28 11:43:20;;;;;;;28.27;15.07;;;8.20;99.90;;;;;;5056314;28;20021;-75
2023/12/28 11:45:55;;;;;;;29.17;14.38;;;8.20;99.90;;;;;;5056032;28;20032;-76
2023/12/28 11:48:28;;;;;;;30.98;16.55;;;8.20;99.90;;;;;;5038392;28;20028;-76
2023/12/28 11:50:58;;;;;;;26.30;15.40;;;8.30;99.90;;;;;;5055536;28;20032;-77
2023/12/28 11:53:25;;;;;;;24.92;14.48;;;8.30;99.90;;;;;;5037938;28;20051;-76
2023/12/28 11:55:51;;;;;;;22.35;14.15;;;8.30;99.90;;;;;;5038312;28;20033;-76
2023/12/28 11:58:18;;;;;;;25.95;14.45;;;8.30;99.90;;;;;;5056101;28;20036;-76
2023/12/28 12:00:43;;;;;;;25.88;14.18;;;8.30;99.90;;;;;;5038448;28;20029;-76
2023/12/28 12:03:13;;;;;;;;;;;8.30;99.90;;;;;;5038465;28;20523;-77
2023/12/28 12:05:38;;;;;;;27.65;16.38;;;8.30;99.90;;;;;;5038233;28;19999;-76
2023/12/28 12:08:05;;;;;;;;;;;8.30;99.90;;;;;;5038637;28;20555;-76
2023/12/28 12:10:32;;;;;;;29.67;17.05;;;8.30;99.90;;;;;;5038625;28;20387;-77
2023/12/28 12:12:58;;;;;;;26.17;15.43;;;8.30;99.90;;;;;;5039073;28;20033;-77
2023/12/28 12:15:23;;;;;;;;;;;8.30;99.90;;;;;;5039547;28;20025;-76
2023/12/28 12:17:49;;;;;;;22.42;14.90;;;8.30;99.90;;;;;;5056897;28;19905;-77
2023/12/28 12:20:14;;;;;;;;;;;8.30;99.90;;;;;;5057838;28;20066;-78
2023/12/28 12:22:40;;;;;;;32.38;16.42;;;8.20;99.90;;;;;;5037347;28;19995;-76
2023/12/28 12:25:07;;;;;;;;;;;8.30;99.90;;;;;;5036591;28;20759;-76
2023/12/28 12:27:33;;;;;;;26.75;17.63;;;8.30;99.90;;;;;;5054141;28;19905;-76
2023/12/28 12:29:58;;;;;;;;;;;8.30;99.90;;;;;;5036566;28;20033;-77
2023/12/28 12:32:24;;;;;;;25.38;15.80;;;8.30;99.90;;;;;;5054111;28;19939;-77
2023/12/28 12:34:51;;;;;;;;;;;8.30;99.90;;;;;;5037061;28;20041;-77
2023/12/28 12:37:17;;;;;;;26.20;15.77;;;8.30;99.90;;;;;;5052060;28;19916;-76
2023/12/28 12:39:43;;;;;;;31.35;15.63;;;8.30;99.90;;;;;;5033742;28;20108;-76
2023/12/28 12:42:13;;;;;;;27.08;16.95;;;8.20;99.90;;;;;;5034051;28;20056;-76
2023/12/28 12:44:39;;;;;;;27.65;16.58;;;8.20;99.90;;;;;;5052584;28;20021;-77
2023/12/28 12:47:04;;;;;;;;;;;8.20;99.90;;;;;;5056133;28;20031;-76
2023/12/28 12:49:31;;;;;;;27.95;16.85;;;8.20;99.90;;;;;;5056117;28;19950;-76
2023/12/28 12:51:57;;;;;;;29.48;17.55;;;8.30;99.90;;;;;;5039338;28;20064;-77
2023/12/28 12:54:22;;;;;;;;;;;8.30;99.90;;;;;;5040820;28;20060;-76
2023/12/28 12:56:50;;;;;;;31.08;17.80;;;8.20;99.90;;;;;;5058898;28;20015;-76
2023/12/28 12:59:17;;;;;;;29.10;18.05;;;8.10;99.90;;;;;;5039643;28;20028;-76
2023/12/28 13:01:48;;;;;;;25.42;16.55;;;8.20;99.90;;;;;;5058636;28;20111;-77
2023/12/28 13:04:16;;;;;;;29.15;17.95;;;8.10;99.90;;;;;;5059429;28;20109;-76
2023/12/28 13:06:42;;;;;;;32.17;17.83;;;8.10;99.90;;;;;;5038727;28;20501;-76
2023/12/28 13:09:10;;;;;;;31.77;16.40;;;8.10;99.90;;;;;;5037901;28;20400;-76
2023/12/28 13:11:37;;;;;;;28.13;17.15;;;8.00;99.90;;;;;;5038358;28;20060;-76
2023/12/28 13:14:02;;;;;;;29.27;16.65;;;8.00;99.90;;;;;;5056341;28;20017;-76